sensor_id;sensor_type;location;lat;lon;timestamp;pressure;altitude;pressure_sealevel;temperature;humidity
17362;BME280;8798;51.938;4.348;2022-10-22T00:00:54;100466.44;;;17.78;74.69
17362;BME280;8798;51.938;4.348;2022-10-22T00:03:22;100466.63;;;17.76;75.03
17362;BME280;8798;51.938;4.348;2022-10-22T00:05:50;100461.41;;;17.75;74.98
17362;BME280;8798;51.938;4.348;2022-10-22T00:08:19;100457.03;;;17.74;75.16
17362;BME280;8798;51.938;4.348;2022-10-22T00:10:46;100451.16;;;17.70;75.06
17362;BME280;8798;51.938;4.348;2022-10-22T00:13:14;100448.66;;;17.69;75.20
17362;BME280;8798;51.938;4.348;2022-10-22T00:15:42;100455.97;;;17.68;75.26
17362;BME280;8798;51.938;4.348;2022-10-22T00:18:10;100465.78;;;17.69;75.23
17362;BME280;8798;51.938;4.348;2022-10-22T00:20:38;100481.91;;;17.71;74.80
17362;BME280;8798;51.938;4.348;2022-10-22T00:23:05;100486.28;;;17.72;75.04
17362;BME280;8798;51.938;4.348;2022-10-22T00:25:35;100507.59;;;17.75;74.93
17362;BME280;8798;51.938;4.348;2022-10-22T00:28:03;100511.13;;;17.75;75.30
17362;BME280;8798;51.938;4.348;2022-10-22T00:30:31;100522.00;;;17.75;75.13
17362;BME280;8798;51.938;4.348;2022-10-22T00:32:59;100528.31;;;17.76;75.13
17362;BME280;8798;51.938;4.348;2022-10-22T00:35:26;100525.59;;;17.76;75.31
17362;BME280;8798;51.938;4.348;2022-10-22T00:37:54;100523.06;;;17.74;75.11
17362;BME280;8798;51.938;4.348;2022-10-22T00:40:22;100533.09;;;17.74;75.39
17362;BME280;8798;51.938;4.348;2022-10-22T00:42:51;100534.97;;;17.73;75.31
17362;BME280;8798;51.938;4.348;2022-10-22T00:45:21;100537.69;;;17.73;75.30
17362;BME280;8798;51.938;4.348;2022-10-22T00:47:53;100537.91;;;17.72;75.20
17362;BME280;8798;51.938;4.348;2022-10-22T00:50:24;100529.75;;;17.72;75.23
17362;BME280;8798;51.938;4.348;2022-10-22T00:52:53;100543.34;;;17.72;75.19
17362;BME280;8798;51.938;4.348;2022-10-22T00:55:22;100545.22;;;17.71;75.40
17362;BME280;8798;51.938;4.348;2022-10-22T00:57:53;100545.41;;;17.70;75.55
17362;BME280;8798;51.938;4.348;2022-10-22T01:00:22;100549.81;;;17.71;75.49
17362;BME280;8798;51.938;4.348;2022-10-22T01:02:51;100555.25;;;17.71;75.50
17362;BME280;8798;51.938;4.348;2022-10-22T01:05:20;100560.69;;;17.71;75.41
17362;BME280;8798;51.938;4.348;2022-10-22T01:07:50;100551.06;;;17.68;75.79
17362;BME280;8798;51.938;4.348;2022-10-22T01:10:29;100557.34;;;17.69;75.38
17362;BME280;8798;51.938;4.348;2022-10-22T01:13:11;100567.38;;;17.68;75.81
17362;BME280;8798;51.938;4.348;2022-10-22T01:15:49;100564.84;;;17.67;75.56
17362;BME280;8798;51.938;4.348;2022-10-22T01:18:22;100567.56;;;17.67;75.37
17362;BME280;8798;51.938;4.348;2022-10-22T01:21:07;100571.34;;;17.66;75.59
17362;BME280;8798;51.938;4.348;2022-10-22T01:23:57;100564.22;;;17.65;75.71
17362;BME280;8798;51.938;4.348;2022-10-22T01:26:36;100550.41;;;17.59;76.04
17362;BME280;8798;51.938;4.348;2022-10-22T01:29:10;100554.38;;;17.57;75.72
17362;BME280;8798;51.938;4.348;2022-10-22T01:31:43;100546.41;;;17.55;75.50
17362;BME280;8798;51.938;4.348;2022-10-22T01:34:16;100545.81;;;17.53;75.82
17362;BME280;8798;51.938;4.348;2022-10-22T01:36:45;100540.56;;;17.52;75.60
17362;BME280;8798;51.938;4.348;2022-10-22T01:39:15;100542.47;;;17.51;75.85
17362;BME280;8798;51.938;4.348;2022-10-22T01:41:43;100542.66;;;17.50;75.72
17362;BME280;8798;51.938;4.348;2022-10-22T01:44:24;100538.28;;;17.49;75.53
17362;BME280;8798;51.938;4.348;2022-10-22T01:47:01;100534.09;;;17.46;75.77
17362;BME280;8798;51.938;4.348;2022-10-22T01:49:43;100535.94;;;17.46;75.75
17362;BME280;8798;51.938;4.348;2022-10-22T01:52:21;100530.75;;;17.44;75.72
17362;BME280;8798;51.938;4.348;2022-10-22T01:54:53;100523.00;;;17.41;75.59
17362;BME280;8798;51.938;4.348;2022-10-22T01:57:30;100523.41;;;17.38;75.80
17362;BME280;8798;51.938;4.348;2022-10-22T02:00:05;100512.13;;;17.34;75.74
17362;BME280;8798;51.938;4.348;2022-10-22T02:02:38;100509.59;;;17.33;75.63
17362;BME280;8798;51.938;4.348;2022-10-22T02:05:11;100512.53;;;17.31;75.78
17362;BME280;8798;51.938;4.348;2022-10-22T02:07:42;100517.09;;;17.31;75.82
17362;BME280;8798;51.938;4.348;2022-10-22T02:10:11;100522.53;;;17.31;75.74
17362;BME280;8798;51.938;4.348;2022-10-22T02:12:41;100514.38;;;17.31;75.67
17362;BME280;8798;51.938;4.348;2022-10-22T02:15:11;100520.88;;;17.30;75.51
17362;BME280;8798;51.938;4.348;2022-10-22T02:17:42;100519.22;;;17.29;75.98
17362;BME280;8798;51.938;4.348;2022-10-22T02:20:15;100534.44;;;17.30;75.86
17362;BME280;8798;51.938;4.348;2022-10-22T02:22:45;100537.34;;;17.28;75.85
17362;BME280;8798;51.938;4.348;2022-10-22T02:25:13;100545.31;;;17.30;75.88
17362;BME280;8798;51.938;4.348;2022-10-22T02:27:45;100550.75;;;17.30;75.92
17362;BME280;8798;51.938;4.348;2022-10-22T02:30:18;100567.03;;;17.30;75.50
17362;BME280;8798;51.938;4.348;2022-10-22T02:32:50;100559.72;;;17.30;75.89
17362;BME280;8798;51.938;4.348;2022-10-22T02:35:22;100567.66;;;17.32;75.85
17362;BME280;8798;51.938;4.348;2022-10-22T02:37:52;100590.03;;;17.34;75.88
17362;BME280;8798;51.938;4.348;2022-10-22T02:40:21;100593.56;;;17.34;75.86
17362;BME280;8798;51.938;4.348;2022-10-22T02:42:49;100590.03;;;17.34;75.64
17362;BME280;8798;51.938;4.348;2022-10-22T02:45:19;100598.19;;;17.34;75.73
17362;BME280;8798;51.938;4.348;2022-10-22T02:47:47;100598.19;;;17.34;75.74
17362;BME280;8798;51.938;4.348;2022-10-22T02:50:15;100599.84;;;17.35;75.99
17362;BME280;8798;51.938;4.348;2022-10-22T02:52:43;100604.44;;;17.34;75.81
17362;BME280;8798;51.938;4.348;2022-10-22T02:55:10;100617.19;;;17.34;75.82
17362;BME280;8798;51.938;4.348;2022-10-22T02:57:38;100614.47;;;17.34;75.97
17362;BME280;8798;51.938;4.348;2022-10-22T03:00:08;100616.34;;;17.33;75.54
17362;BME280;8798;51.938;4.348;2022-10-22T03:02:37;100619.91;;;17.34;75.52
17362;BME280;8798;51.938;4.348;2022-10-22T03:05:05;100621.78;;;17.33;76.00
17362;BME280;8798;51.938;4.348;2022-10-22T03:07:33;100618.22;;;17.33;76.00
17362;BME280;8798;51.938;4.348;2022-10-22T03:10:01;100622.81;;;17.32;76.14
17362;BME280;8798;51.938;4.348;2022-10-22T03:12:29;100621.16;;;17.31;75.86
17362;BME280;8798;51.938;4.348;2022-10-22T03:14:57;100618.63;;;17.30;75.80
17362;BME280;8798;51.938;4.348;2022-10-22T03:17:25;100621.34;;;17.30;75.56
17362;BME280;8798;51.938;4.348;2022-10-22T03:19:54;100626.75;;;17.30;75.66
17362;BME280;8798;51.938;4.348;2022-10-22T03:22:24;100626.75;;;17.30;75.89
17362;BME280;8798;51.938;4.348;2022-10-22T03:24:54;100631.16;;;17.31;75.86
17362;BME280;8798;51.938;4.348;2022-10-22T03:27:25;100629.47;;;17.30;75.70
17362;BME280;8798;51.938;4.348;2022-10-22T03:29:55;100639.50;;;17.29;75.78
17362;BME280;8798;51.938;4.348;2022-10-22T03:32:24;100641.19;;;17.30;75.48
17362;BME280;8798;51.938;4.348;2022-10-22T03:34:54;100645.78;;;17.30;75.91
17362;BME280;8798;51.938;4.348;2022-10-22T03:37:24;100656.44;;;17.31;75.74
17362;BME280;8798;51.938;4.348;2022-10-22T03:39:54;100660.81;;;17.32;75.75
17362;BME280;8798;51.938;4.348;2022-10-22T03:42:22;100672.50;;;17.33;75.82
17362;BME280;8798;51.938;4.348;2022-10-22T03:44:50;100676.94;;;17.34;76.17
17362;BME280;8798;51.938;4.348;2022-10-22T03:47:18;100678.59;;;17.35;75.90
17362;BME280;8798;51.938;4.348;2022-10-22T03:49:49;100676.94;;;17.34;75.62
17362;BME280;8798;51.938;4.348;2022-10-22T03:52:18;100668.97;;;17.32;75.70
17362;BME280;8798;51.938;4.348;2022-10-22T03:54:46;100677.94;;;17.33;75.77
17362;BME280;8798;51.938;4.348;2022-10-22T03:57:14;100686.09;;;17.33;75.63
17362;BME280;8798;51.938;4.348;2022-10-22T03:59:43;100688.81;;;17.33;75.66
17362;BME280;8798;51.938;4.348;2022-10-22T04:02:12;100689.69;;;17.33;75.88
17362;BME280;8798;51.938;4.348;2022-10-22T04:04:40;100692.38;;;17.33;75.79
17362;BME280;8798;51.938;4.348;2022-10-22T04:07:08;100685.06;;;17.34;75.81
17362;BME280;8798;51.938;4.348;2022-10-22T04:09:37;100692.56;;;17.32;75.88
17362;BME280;8798;51.938;4.348;2022-10-22T04:12:05;100689.03;;;17.31;76.00
17362;BME280;8798;51.938;4.348;2022-10-22T04:14:34;100700.72;;;17.32;76.01
17362;BME280;8798;51.938;4.348;2022-10-22T04:17:02;100705.97;;;17.33;75.77
17362;BME280;8798;51.938;4.348;2022-10-22T04:19:29;100705.97;;;17.33;75.56
17362;BME280;8798;51.938;4.348;2022-10-22T04:21:57;100706.16;;;17.32;75.80
17362;BME280;8798;51.938;4.348;2022-10-22T04:24:25;100704.47;;;17.31;75.74
17362;BME280;8798;51.938;4.348;2022-10-22T04:26:54;100703.63;;;17.30;75.66
17362;BME280;8798;51.938;4.348;2022-10-22T04:29:23;100699.44;;;17.28;75.64
17362;BME280;8798;51.938;4.348;2022-10-22T04:31:51;100691.50;;;17.26;75.85
17362;BME280;8798;51.938;4.348;2022-10-22T04:34:19;100686.25;;;17.25;75.81
17362;BME280;8798;51.938;4.348;2022-10-22T04:36:46;100679.34;;;17.22;75.84
17362;BME280;8798;51.938;4.348;2022-10-22T04:39:14;100671.63;;;17.19;75.78
17362;BME280;8798;51.938;4.348;2022-10-22T04:41:42;100669.09;;;17.17;75.30
17362;BME280;8798;51.938;4.348;2022-10-22T04:44:11;100663.03;;;17.15;75.74
17362;BME280;8798;51.938;4.348;2022-10-22T04:46:43;100655.09;;;17.14;75.98
17362;BME280;8798;51.938;4.348;2022-10-22T04:49:11;100646.31;;;17.12;76.05
17362;BME280;8798;51.938;4.348;2022-10-22T04:51:38;100643.13;;;17.08;75.72
17362;BME280;8798;51.938;4.348;2022-10-22T04:54:06;100630.81;;;17.06;75.75
17362;BME280;8798;51.938;4.348;2022-10-22T04:56:34;100622.25;;;17.02;75.42
17362;BME280;8798;51.938;4.348;2022-10-22T04:59:04;100609.06;;;16.99;75.48
17362;BME280;8798;51.938;4.348;2022-10-22T05:01:35;100607.59;;;16.96;75.70
17362;BME280;8798;51.938;4.348;2022-10-22T05:04:10;100603.41;;;16.94;75.79
17362;BME280;8798;51.938;4.348;2022-10-22T05:06:39;100606.97;;;16.94;76.19
17362;BME280;8798;51.938;4.348;2022-10-22T05:09:10;100618.66;;;16.95;75.81
17362;BME280;8798;51.938;4.348;2022-10-22T05:11:39;100631.16;;;16.96;75.54
17362;BME280;8798;51.938;4.348;2022-10-22T05:14:11;100639.13;;;16.97;75.90
17362;BME280;8798;51.938;4.348;2022-10-22T05:16:40;100646.22;;;16.98;75.68
17362;BME280;8798;51.938;4.348;2022-10-22T05:19:14;100663.97;;;17.01;75.75
17362;BME280;8798;51.938;4.348;2022-10-22T05:21:42;100671.94;;;17.03;75.56
17362;BME280;8798;51.938;4.348;2022-10-22T05:24:10;100677.16;;;17.04;75.88
17362;BME280;8798;51.938;4.348;2022-10-22T05:26:38;100689.50;;;17.07;75.88
17362;BME280;8798;51.938;4.348;2022-10-22T05:29:05;100703.91;;;17.07;76.00
17362;BME280;8798;51.938;4.348;2022-10-22T05:31:33;100717.06;;;17.10;76.08
17362;BME280;8798;51.938;4.348;2022-10-22T05:34:02;100717.06;;;17.10;75.75
17362;BME280;8798;51.938;4.348;2022-10-22T05:36:30;100734.84;;;17.13;75.65
17362;BME280;8798;51.938;4.348;2022-10-22T05:38:58;100734.84;;;17.13;75.97
17362;BME280;8798;51.938;4.348;2022-10-22T05:41:26;100723.75;;;17.08;75.90
17362;BME280;8798;51.938;4.348;2022-10-22T05:43:55;100709.53;;;17.06;75.74
17362;BME280;8798;51.938;4.348;2022-10-22T05:46:25;100709.72;;;17.04;76.26
17362;BME280;8798;51.938;4.348;2022-10-22T05:48:55;100700.94;;;17.02;75.95
17362;BME280;8798;51.938;4.348;2022-10-22T05:51:25;100706.56;;;17.01;75.73
17362;BME280;8798;51.938;4.348;2022-10-22T05:53:55;100697.78;;;16.98;75.80
17362;BME280;8798;51.938;4.348;2022-10-22T05:56:23;100702.38;;;16.98;75.83
17362;BME280;8798;51.938;4.348;2022-10-22T05:58:51;100696.28;;;16.96;75.72
17362;BME280;8798;51.938;4.348;2022-10-22T06:01:21;100694.44;;;16.96;75.92
17362;BME280;8798;51.938;4.348;2022-10-22T06:03:52;100706.97;;;16.97;75.71
17362;BME280;8798;51.938;4.348;2022-10-22T06:06:21;100715.94;;;16.98;75.98
17362;BME280;8798;51.938;4.348;2022-10-22T06:08:51;100727.44;;;17.00;75.86
17362;BME280;8798;51.938;4.348;2022-10-22T06:11:22;100740.81;;;17.02;76.21
17362;BME280;8798;51.938;4.348;2022-10-22T06:13:50;100746.91;;;17.04;75.89
17362;BME280;8798;51.938;4.348;2022-10-22T06:16:18;100755.88;;;17.04;76.09
17362;BME280;8798;51.938;4.348;2022-10-22T06:18:46;100760.25;;;17.05;75.88
17362;BME280;8798;51.938;4.348;2022-10-22T06:21:14;100771.13;;;17.05;75.96
17362;BME280;8798;51.938;4.348;2022-10-22T06:23:42;100772.16;;;17.04;76.07
17362;BME280;8798;51.938;4.348;2022-10-22T06:26:12;100774.88;;;17.04;75.86
17362;BME280;8798;51.938;4.348;2022-10-22T06:28:39;100776.53;;;17.05;75.91
17362;BME280;8798;51.938;4.348;2022-10-22T06:31:08;100785.50;;;17.06;75.83
17362;BME280;8798;51.938;4.348;2022-10-22T06:33:36;100803.50;;;17.07;75.92
17362;BME280;8798;51.938;4.348;2022-10-22T06:36:09;100812.28;;;17.09;76.02
17362;BME280;8798;51.938;4.348;2022-10-22T06:38:38;100807.88;;;17.08;76.01
17362;BME280;8798;51.938;4.348;2022-10-22T06:41:07;100812.28;;;17.09;75.95
17362;BME280;8798;51.938;4.348;2022-10-22T06:43:37;100822.94;;;17.10;75.91
17362;BME280;8798;51.938;4.348;2022-10-22T06:46:07;100838.00;;;17.13;76.34
17362;BME280;8798;51.938;4.348;2022-10-22T06:48:46;100837.16;;;17.12;75.94
17362;BME280;8798;51.938;4.348;2022-10-22T06:51:15;100839.88;;;17.12;75.98
17362;BME280;8798;51.938;4.348;2022-10-22T06:53:42;100840.53;;;17.14;75.73
17362;BME280;8798;51.938;4.348;2022-10-22T06:56:11;100841.53;;;17.13;76.17
17362;BME280;8798;51.938;4.348;2022-10-22T06:58:41;100848.84;;;17.13;75.78
17362;BME280;8798;51.938;4.348;2022-10-22T07:01:11;100853.25;;;17.14;76.04
17362;BME280;8798;51.938;4.348;2022-10-22T07:03:40;100850.72;;;17.12;75.98
17362;BME280;8798;51.938;4.348;2022-10-22T07:06:09;100845.47;;;17.11;75.82
17362;BME280;8798;51.938;4.348;2022-10-22T07:08:38;100837.75;;;17.08;75.96
17362;BME280;8798;51.938;4.348;2022-10-22T07:11:08;100824.56;;;17.05;76.02
17362;BME280;8798;51.938;4.348;2022-10-22T07:13:37;100815.94;;;17.01;75.67
17362;BME280;8798;51.938;4.348;2022-10-22T07:16:06;100799.41;;;16.96;75.96
17362;BME280;8798;51.938;4.348;2022-10-22T07:18:35;100793.38;;;16.94;75.88
17362;BME280;8798;51.938;4.348;2022-10-22T07:21:05;100783.75;;;16.91;76.10
17362;BME280;8798;51.938;4.348;2022-10-22T07:23:33;100784.59;;;16.92;75.98
17362;BME280;8798;51.938;4.348;2022-10-22T07:26:02;100810.28;;;16.96;76.00
17362;BME280;8798;51.938;4.348;2022-10-22T07:28:30;100822.00;;;16.96;76.23
17362;BME280;8798;51.938;4.348;2022-10-22T07:30:59;100828.25;;;16.97;76.20
17362;BME280;8798;51.938;4.348;2022-10-22T07:33:28;100838.91;;;16.98;76.09
17362;BME280;8798;51.938;4.348;2022-10-22T07:35:57;100860.25;;;17.02;76.06
17362;BME280;8798;51.938;4.348;2022-10-22T07:38:26;100866.31;;;17.04;76.10
17362;BME280;8798;51.938;4.348;2022-10-22T07:40:54;100885.13;;;17.05;76.16
17362;BME280;8798;51.938;4.348;2022-10-22T07:43:22;100891.19;;;17.07;76.25
17362;BME280;8798;51.938;4.348;2022-10-22T07:45:50;100919.81;;;17.10;76.27
17362;BME280;8798;51.938;4.348;2022-10-22T07:48:17;100929.28;;;17.14;76.49
17362;BME280;8798;51.938;4.348;2022-10-22T07:50:48;100947.06;;;17.16;76.29
17362;BME280;8798;51.938;4.348;2022-10-22T07:53:16;100946.00;;;17.17;76.51
17362;BME280;8798;51.938;4.348;2022-10-22T07:55:47;100959.41;;;17.19;76.15
17362;BME280;8798;51.938;4.348;2022-10-22T07:58:15;100972.59;;;17.22;76.21
17362;BME280;8798;51.938;4.348;2022-10-22T08:00:42;100992.91;;;17.26;76.45
17362;BME280;8798;51.938;4.348;2022-10-22T08:03:11;101005.25;;;17.29;76.68
17362;BME280;8798;51.938;4.348;2022-10-22T08:05:39;101017.59;;;17.31;76.16
17362;BME280;8798;51.938;4.348;2022-10-22T08:08:10;101024.69;;;17.32;76.41
17362;BME280;8798;51.938;4.348;2022-10-22T08:10:39;101027.41;;;17.32;76.39
17362;BME280;8798;51.938;4.348;2022-10-22T08:13:07;101033.69;;;17.33;76.17
17362;BME280;8798;51.938;4.348;2022-10-22T08:15:35;101046.91;;;17.36;76.01
17362;BME280;8798;51.938;4.348;2022-10-22T08:18:03;101061.97;;;17.38;76.18
17362;BME280;8798;51.938;4.348;2022-10-22T08:20:31;101072.44;;;17.41;76.75
17362;BME280;8798;51.938;4.348;2022-10-22T08:22:59;101076.00;;;17.42;76.76
17362;BME280;8798;51.938;4.348;2022-10-22T08:25:28;101083.31;;;17.41;76.01
17362;BME280;8798;51.938;4.348;2022-10-22T08:27:56;101082.47;;;17.41;76.43
17362;BME280;8798;51.938;4.348;2022-10-22T08:30:24;101072.63;;;17.40;76.33
17362;BME280;8798;51.938;4.348;2022-10-22T08:32:53;101084.16;;;17.42;76.23
17362;BME280;8798;51.938;4.348;2022-10-22T08:35:21;101102.59;;;17.47;76.24
17362;BME280;8798;51.938;4.348;2022-10-22T08:37:49;101101.75;;;17.46;76.62
17362;BME280;8798;51.938;4.348;2022-10-22T08:40:20;101111.41;;;17.49;76.25
17362;BME280;8798;51.938;4.348;2022-10-22T08:46:05;101136.13;;;17.54;76.14
17362;BME280;8798;51.938;4.348;2022-10-22T08:48:42;101140.50;;;17.55;76.23
17362;BME280;8798;51.938;4.348;2022-10-22T08:51:17;101148.47;;;17.56;76.49
17362;BME280;8798;51.938;4.348;2022-10-22T08:53:55;101152.03;;;17.57;76.11
17362;BME280;8798;51.938;4.348;2022-10-22T08:56:28;101153.06;;;17.56;76.16
17362;BME280;8798;51.938;4.348;2022-10-22T08:59:02;101150.97;;;17.58;76.58
17362;BME280;8798;51.938;4.348;2022-10-22T09:01:35;101150.34;;;17.56;76.23
17362;BME280;8798;51.938;4.348;2022-10-22T09:04:09;101150.34;;;17.56;76.16
17362;BME280;8798;51.938;4.348;2022-10-22T09:06:40;101146.16;;;17.53;76.36
17362;BME280;8798;51.938;4.348;2022-10-22T09:09:14;101145.28;;;17.53;76.42
17362;BME280;8798;51.938;4.348;2022-10-22T09:11:44;101154.91;;;17.55;76.12
17362;BME280;8798;51.938;4.348;2022-10-22T09:14:15;101176.09;;;17.60;76.24
17362;BME280;8798;51.938;4.348;2022-10-22T09:17:01;101201.69;;;17.66;76.38
17362;BME280;8798;51.938;4.348;2022-10-22T09:19:35;101198.75;;;17.67;76.17
17362;BME280;8798;51.938;4.348;2022-10-22T09:22:14;101203.19;;;17.68;76.32
17362;BME280;8798;51.938;4.348;2022-10-22T09:24:47;101201.69;;;17.66;76.29
17362;BME280;8798;51.938;4.348;2022-10-22T09:27:17;101196.44;;;17.64;76.30
17362;BME280;8798;51.938;4.348;2022-10-22T09:29:47;101195.59;;;17.63;76.11
17362;BME280;8798;51.938;4.348;2022-10-22T09:32:15;101198.97;;;17.66;76.43
17362;BME280;8798;51.938;4.348;2022-10-22T09:34:44;101210.47;;;17.68;76.40
17362;BME280;8798;51.938;4.348;2022-10-22T09:37:15;101207.75;;;17.68;76.39
17362;BME280;8798;51.938;4.348;2022-10-22T09:39:47;101219.47;;;17.68;76.22
17362;BME280;8798;51.938;4.348;2022-10-22T09:42:19;101214.22;;;17.67;76.47
17362;BME280;8798;51.938;4.348;2022-10-22T09:44:52;101218.59;;;17.68;76.44
17362;BME280;8798;51.938;4.348;2022-10-22T09:47:32;101224.03;;;17.68;76.62
17362;BME280;8798;51.938;4.348;2022-10-22T09:50:26;101221.31;;;17.68;76.46
17362;BME280;8798;51.938;4.348;2022-10-22T09:52:59;101221.31;;;17.68;76.62
17362;BME280;8798;51.938;4.348;2022-10-22T09:55:27;101227.63;;;17.68;76.42
17362;BME280;8798;51.938;4.348;2022-10-22T09:57:57;101237.06;;;17.72;76.55
17362;BME280;8798;51.938;4.348;2022-10-22T10:00:28;101256.56;;;17.76;76.69
17362;BME280;8798;51.938;4.348;2022-10-22T10:02:58;101272.50;;;17.79;76.40
17362;BME280;8798;51.938;4.348;2022-10-22T10:05:28;101281.13;;;17.82;76.50
17362;BME280;8798;51.938;4.348;2022-10-22T10:07:56;101308.59;;;17.88;76.59
17362;BME280;8798;51.938;4.348;2022-10-22T10:10:36;101340.47;;;17.94;76.39
17362;BME280;8798;51.938;4.348;2022-10-22T10:16:07;101370.94;;;18.04;76.57
17362;BME280;8798;51.938;4.348;2022-10-22T10:18:46;101377.03;;;18.06;76.24
17362;BME280;8798;51.938;4.348;2022-10-22T10:21:25;101396.53;;;18.10;76.50
17362;BME280;8798;51.938;4.348;2022-10-22T10:24:02;101390.06;;;18.11;76.28
17362;BME280;8798;51.938;4.348;2022-10-22T10:26:38;101394.47;;;18.12;76.14
17362;BME280;8798;51.938;4.348;2022-10-22T10:29:18;101420.25;;;18.16;76.40
17362;BME280;8798;51.938;4.348;2022-10-22T10:32:04;101433.47;;;18.19;76.27
17362;BME280;8798;51.938;4.348;2022-10-22T10:34:41;101436.69;;;18.22;76.02
17362;BME280;8798;51.938;4.348;2022-10-22T10:37:18;101467.72;;;18.28;75.97
17362;BME280;8798;51.938;4.348;2022-10-22T10:40:03;101502.59;;;18.39;76.18
17362;BME280;8798;51.938;4.348;2022-10-22T10:42:38;101535.38;;;18.46;75.83
17362;BME280;8798;51.938;4.348;2022-10-22T10:45:16;101566.06;;;18.55;75.75
17362;BME280;8798;51.938;4.348;2022-10-22T10:48:11;101571.13;;;18.58;75.91
17362;BME280;8798;51.938;4.348;2022-10-22T10:50:54;101562.97;;;18.58;75.53
17362;BME280;8798;51.938;4.348;2022-10-22T10:53:33;101561.47;;;18.55;75.61
17362;BME280;8798;51.938;4.348;2022-10-22T10:56:08;101547.84;;;18.55;75.75
17362;BME280;8798;51.938;4.348;2022-10-22T10:58:46;101547.84;;;18.55;75.70
17362;BME280;8798;51.938;4.348;2022-10-22T11:01:23;101542.41;;;18.55;75.48
17362;BME280;8798;51.938;4.348;2022-10-22T11:04:10;101513.03;;;18.51;75.46
17362;BME280;8798;51.938;4.348;2022-10-22T11:06:42;101496.22;;;18.47;75.22
17362;BME280;8798;51.938;4.348;2022-10-22T11:09:19;101479.06;;;18.46;75.39
17362;BME280;8798;51.938;4.348;2022-10-22T11:11:53;101503.19;;;18.50;74.95
17362;BME280;8798;51.938;4.348;2022-10-22T11:14:28;101493.31;;;18.48;74.98
17362;BME280;8798;51.938;4.348;2022-10-22T11:17:03;101482.81;;;18.45;74.88
17362;BME280;8798;51.938;4.348;2022-10-22T11:19:37;101466.50;;;18.45;75.02
17362;BME280;8798;51.938;4.348;2022-10-22T11:22:22;101485.16;;;18.48;74.54
17362;BME280;8798;51.938;4.348;2022-10-22T11:24:55;101504.31;;;18.55;74.60
17362;BME280;8798;51.938;4.348;2022-10-22T11:27:31;101532.47;;;18.62;74.81
17362;BME280;8798;51.938;4.348;2022-10-22T11:30:05;101553.69;;;18.67;74.49
17362;BME280;8798;51.938;4.348;2022-10-22T11:32:38;101558.75;;;18.70;74.61
17362;BME280;8798;51.938;4.348;2022-10-22T11:35:13;101560.41;;;18.71;74.31
17362;BME280;8798;51.938;4.348;2022-10-22T11:37:43;101573.50;;;18.76;74.24
17362;BME280;8798;51.938;4.348;2022-10-22T11:40:16;101584.88;;;18.79;74.17
17362;BME280;8798;51.938;4.348;2022-10-22T11:42:48;101608.78;;;18.84;74.41
17362;BME280;8798;51.938;4.348;2022-10-22T11:45:28;101613.69;;;18.88;74.19
17362;BME280;8798;51.938;4.348;2022-10-22T11:47:58;101625.22;;;18.90;74.07
17362;BME280;8798;51.938;4.348;2022-10-22T11:50:48;101620.44;;;18.93;73.73
17362;BME280;8798;51.938;4.348;2022-10-22T11:53:20;101603.63;;;18.89;73.75
17362;BME280;8798;51.938;4.348;2022-10-22T11:55:54;101588.91;;;18.83;73.68
17362;BME280;8798;51.938;4.348;2022-10-22T11:58:34;101574.28;;;18.84;73.70
17362;BME280;8798;51.938;4.348;2022-10-22T12:01:22;101578.50;;;18.87;73.43
17362;BME280;8798;51.938;4.348;2022-10-22T12:03:52;101599.69;;;18.91;73.76
17362;BME280;8798;51.938;4.348;2022-10-22T12:06:23;101603.06;;;18.94;73.63
17362;BME280;8798;51.938;4.348;2022-10-22T12:08:58;101614.44;;;18.97;73.49
17362;BME280;8798;51.938;4.348;2022-10-22T12:11:35;101625.13;;;18.99;73.56
17362;BME280;8798;51.938;4.348;2022-10-22T12:14:18;101655.69;;;19.09;73.26
17362;BME280;8798;51.938;4.348;2022-10-22T12:16:50;101672.47;;;19.12;73.30
17362;BME280;8798;51.938;4.348;2022-10-22T12:19:26;101673.31;;;19.13;73.26
17362;BME280;8798;51.938;4.348;2022-10-22T12:21:57;101626.06;;;19.06;72.98
17362;BME280;8798;51.938;4.348;2022-10-22T12:24:30;101593.50;;;18.98;73.02
17362;BME280;8798;51.938;4.348;2022-10-22T12:26:58;101555.47;;;18.89;72.84
17362;BME280;8798;51.938;4.348;2022-10-22T12:29:26;101529.47;;;18.87;72.71
17362;BME280;8798;51.938;4.348;2022-10-22T12:31:54;101530.31;;;18.87;72.84
17362;BME280;8798;51.938;4.348;2022-10-22T12:34:23;101533.88;;;18.88;72.54
17362;BME280;8798;51.938;4.348;2022-10-22T12:36:52;101526.56;;;18.88;72.65
17362;BME280;8798;51.938;4.348;2022-10-22T12:39:25;101545.88;;;18.94;72.65
17362;BME280;8798;51.938;4.348;2022-10-22T12:41:53;101571.53;;;18.99;72.40
17362;BME280;8798;51.938;4.348;2022-10-22T12:44:21;101581.84;;;19.04;72.30
17362;BME280;8798;51.938;4.348;2022-10-22T12:46:49;101600.53;;;19.07;72.13
17362;BME280;8798;51.938;4.348;2022-10-22T12:49:30;101603.94;;;19.09;72.19
17362;BME280;8798;51.938;4.348;2022-10-22T12:52:01;101604.75;;;19.09;71.99
17362;BME280;8798;51.938;4.348;2022-10-22T12:54:33;101602.69;;;19.11;71.86
17362;BME280;8798;51.938;4.348;2022-10-22T12:57:01;101599.09;;;19.11;71.94
17362;BME280;8798;51.938;4.348;2022-10-22T12:59:32;101600.81;;;19.12;72.02
17362;BME280;8798;51.938;4.348;2022-10-22T13:02:04;101606.94;;;19.14;71.89
17362;BME280;8798;51.938;4.348;2022-10-22T13:04:41;101603.16;;;19.15;71.88
17362;BME280;8798;51.938;4.348;2022-10-22T13:07:18;101610.09;;;19.18;71.79
17362;BME280;8798;51.938;4.348;2022-10-22T13:09:57;101599.38;;;19.16;71.59
17362;BME280;8798;51.938;4.348;2022-10-22T13:12:26;101578.81;;;19.13;71.56
17362;BME280;8798;51.938;4.348;2022-10-22T13:14:54;101573.56;;;19.12;71.59
17362;BME280;8798;51.938;4.348;2022-10-22T13:17:37;101555.75;;;19.09;71.38
17362;BME280;8798;51.938;4.348;2022-10-22T13:20:16;101530.09;;;19.04;71.18
17362;BME280;8798;51.938;4.348;2022-10-22T13:22:55;101500.06;;;18.97;71.20
17362;BME280;8798;51.938;4.348;2022-10-22T13:25:28;101471.69;;;18.91;71.16
17362;BME280;8798;51.938;4.348;2022-10-22T13:27:58;101454.09;;;18.87;71.05